createdAt,value
2022-12-18T00:02:18.516Z,71.89
2022-12-18T00:04:48.086Z,71.34
2022-12-18T00:07:17.248Z,71.75
2022-12-18T00:09:47.718Z,71.88
2022-12-18T00:14:52.958Z,71.75
2022-12-18T00:17:22.375Z,71.95
2022-12-18T00:19:51.945Z,71.79
2022-12-18T00:22:21.273Z,71.50
2022-12-18T00:24:50.697Z,71.91
2022-12-18T00:27:21.242Z,72.13
2022-12-18T00:29:51.340Z,72.28
2022-12-18T00:32:20.640Z,72.42
2022-12-18T00:34:50.027Z,72.83
2022-12-18T00:37:20.346Z,73.17
2022-12-18T00:39:53.917Z,73.18
2022-12-18T00:42:42.098Z,73.41
2022-12-18T00:45:13.107Z,72.68
2022-12-18T00:47:42.892Z,72.28
2022-12-18T00:50:12.698Z,72.52
2022-12-18T00:52:41.903Z,72.58
2022-12-18T00:55:11.849Z,72.57
2022-12-18T00:57:42.803Z,72.67
2022-12-18T01:00:15.984Z,72.32
2022-12-18T01:02:45.635Z,72.96
2022-12-18T01:05:16.512Z,72.45
2022-12-18T01:07:45.754Z,72.75
2022-12-18T01:10:15.717Z,73.11
2022-12-18T01:12:47.075Z,73.29
2022-12-18T01:15:17.407Z,72.84
2022-12-18T01:17:46.573Z,72.96
2022-12-18T01:20:16.759Z,73.04
2022-12-18T01:22:46.035Z,72.60
2022-12-18T01:25:15.423Z,72.89
2022-12-18T01:27:47.548Z,73.23
2022-12-18T01:30:17.144Z,73.13
2022-12-18T01:32:46.471Z,73.08
2022-12-18T01:35:15.909Z,73.15
2022-12-18T01:37:45.081Z,72.70
2022-12-18T01:40:15.072Z,73.02
2022-12-18T01:42:44.224Z,72.87
2022-12-18T01:45:30.612Z,72.39
2022-12-18T01:48:02.671Z,72.24
2022-12-18T01:50:35.047Z,72.28
2022-12-18T01:53:08.634Z,72.14
2022-12-18T01:55:44.782Z,71.66
2022-12-18T01:58:15.714Z,72.32
2022-12-18T02:00:46.881Z,72.03
2022-12-18T02:03:16.448Z,72.84
2022-12-18T02:05:51.588Z,73.07
2022-12-18T02:08:26.626Z,72.83
2022-12-18T02:11:07.120Z,72.32
2022-12-18T02:13:46.073Z,72.72
2022-12-18T02:16:23.893Z,72.86
2022-12-18T02:19:08.898Z,72.81
2022-12-18T02:22:05.944Z,72.68
2022-12-18T02:24:43.467Z,72.96
2022-12-18T02:27:15.398Z,73.13
2022-12-18T02:29:56.029Z,73.12
2022-12-18T02:32:29.761Z,73.23
2022-12-18T02:35:00.601Z,73.21
2022-12-18T02:37:33.635Z,73.21
2022-12-18T02:40:07.479Z,73.13
2022-12-18T02:42:40.755Z,73.49
2022-12-18T02:45:12.470Z,73.38
2022-12-18T02:47:45.557Z,73.34
2022-12-18T02:50:24.771Z,73.13
2022-12-18T02:53:08.649Z,72.98
2022-12-18T02:55:55.844Z,73.29
2022-12-18T02:58:34.211Z,73.22
2022-12-18T03:01:16.231Z,72.99
2022-12-18T03:03:52.264Z,73.18
2022-12-18T03:06:27.559Z,73.28
2022-12-18T03:09:01.649Z,72.53
2022-12-18T03:11:52.742Z,73.27
2022-12-18T03:14:26.368Z,73.16
2022-12-18T03:17:00.292Z,73.34
2022-12-18T03:19:34.036Z,72.98
2022-12-18T03:22:08.167Z,72.91
2022-12-18T03:24:48.600Z,73.05
2022-12-18T03:27:20.877Z,73.01
2022-12-18T03:33:56.130Z,72.82
2022-12-18T03:36:32.635Z,72.33
2022-12-18T03:39:02.067Z,72.81
2022-12-18T03:41:35.821Z,73.20
2022-12-18T03:44:34.604Z,73.68
2022-12-18T03:47:10.089Z,74.38
2022-12-18T03:49:47.221Z,74.70
2022-12-18T03:52:26.295Z,74.40
2022-12-18T03:54:59.438Z,74.48
2022-12-18T03:57:33.141Z,74.05
2022-12-18T04:00:06.703Z,74.08
2022-12-18T04:02:48.308Z,74.01
2022-12-18T04:05:28.339Z,74.32
2022-12-18T04:07:59.509Z,74.01
2022-12-18T04:10:30.025Z,74.53
2022-12-18T04:13:01.194Z,74.27
2022-12-18T04:15:31.426Z,74.22
2022-12-18T04:18:03.262Z,74.55
2022-12-18T04:20:39.514Z,73.97
2022-12-18T04:23:09.074Z,74.09
2022-12-18T04:25:39.441Z,73.73
2022-12-18T04:28:13.136Z,74.03
2022-12-18T04:30:42.638Z,73.79
2022-12-18T04:33:15.701Z,73.55
2022-12-18T04:35:45.456Z,73.56
2022-12-18T04:38:15.998Z,73.06
2022-12-18T04:40:45.630Z,73.06
2022-12-18T04:43:23.908Z,73.16
2022-12-18T04:45:53.202Z,72.66
2022-12-18T04:48:24.219Z,73.12
2022-12-18T04:50:53.477Z,72.72
2022-12-18T04:53:22.908Z,72.68
2022-12-18T04:55:52.257Z,72.77
2022-12-18T04:58:21.907Z,72.73
2022-12-18T05:00:51.057Z,72.63
2022-12-18T05:03:22.073Z,72.42
2022-12-18T05:05:53.131Z,72.35
2022-12-18T05:08:22.865Z,72.49
2022-12-18T05:10:52.149Z,72.56
2022-12-18T05:13:21.659Z,72.83
2022-12-18T05:15:54.991Z,73.11
2022-12-18T05:18:26.562Z,72.72
2022-12-18T05:20:56.499Z,72.97
2022-12-18T05:23:27.201Z,72.75
2022-12-18T05:25:58.106Z,72.88
2022-12-18T05:28:29.065Z,73.39
2022-12-18T05:31:01.045Z,73.04
2022-12-18T05:33:33.734Z,73.34
2022-12-18T05:36:08.713Z,72.77
2022-12-18T05:38:40.265Z,73.12
2022-12-18T05:41:09.862Z,72.97
2022-12-18T05:43:40.282Z,72.92
2022-12-18T05:46:13.491Z,73.15
2022-12-18T05:48:44.873Z,72.66
2022-12-18T05:51:15.652Z,72.95
2022-12-18T05:53:46.243Z,73.09
2022-12-18T05:56:16.200Z,72.82
2022-12-18T05:58:46.165Z,73.10
2022-12-18T06:01:17.112Z,73.27
2022-12-18T06:03:48.289Z,72.85
2022-12-18T06:06:19.959Z,73.00
2022-12-18T06:08:52.224Z,72.97
2022-12-18T06:11:23.891Z,72.98
2022-12-18T06:13:58.224Z,73.14
2022-12-18T06:16:28.570Z,73.30
2022-12-18T06:19:01.102Z,73.33
2022-12-18T06:21:31.941Z,73.41
2022-12-18T06:24:02.902Z,73.43
2022-12-18T06:26:31.871Z,72.90
2022-12-18T06:29:01.278Z,73.11
2022-12-18T06:31:30.484Z,73.52
2022-12-18T06:34:01.696Z,73.38
2022-12-18T06:36:31.479Z,73.33
2022-12-18T06:39:01.119Z,73.70
2022-12-18T06:41:30.246Z,73.41
2022-12-18T06:44:00.784Z,73.45
2022-12-18T06:46:30.136Z,73.62
2022-12-18T06:49:01.009Z,73.54
2022-12-18T06:51:30.268Z,73.65
2022-12-18T06:53:59.742Z,73.47
2022-12-18T06:56:29.157Z,73.65
2022-12-18T06:58:58.832Z,73.52
2022-12-18T07:01:28.057Z,73.25
2022-12-18T07:03:58.922Z,73.38
2022-12-18T07:06:29.734Z,73.36
2022-12-18T07:08:59.173Z,72.99
2022-12-18T07:11:28.422Z,73.43
2022-12-18T07:13:57.889Z,73.52
2022-12-18T07:16:29.387Z,73.42
2022-12-18T07:18:59.510Z,73.24
2022-12-18T07:21:30.233Z,73.22
2022-12-18T07:24:00.302Z,73.07
2022-12-18T07:26:29.454Z,73.00
2022-12-18T07:28:59.860Z,72.80
2022-12-18T07:31:29.158Z,72.65
2022-12-18T07:33:59.358Z,73.00
2022-12-18T07:36:30.187Z,72.72
2022-12-18T07:38:59.908Z,72.87
2022-12-18T07:41:29.039Z,72.78
2022-12-18T07:43:58.609Z,72.83
2022-12-18T07:46:27.831Z,72.96
2022-12-18T07:48:58.681Z,73.02
2022-12-18T07:51:27.831Z,73.09
2022-12-18T07:53:59.850Z,72.82
2022-12-18T07:56:31.249Z,73.05
2022-12-18T07:59:04.190Z,72.74
2022-12-18T08:01:33.578Z,72.86
2022-12-18T08:04:03.172Z,72.93
2022-12-18T08:06:32.665Z,72.98
2022-12-18T08:09:03.657Z,73.26
2022-12-18T08:11:33.101Z,73.05
2022-12-18T08:14:02.557Z,73.34
2022-12-18T08:16:32.184Z,73.70
2022-12-18T08:19:01.529Z,73.34
2022-12-18T08:21:32.729Z,73.39
2022-12-18T08:24:04.909Z,73.79
2022-12-18T08:26:34.265Z,73.54
2022-12-18T08:29:03.751Z,73.25
2022-12-18T08:31:34.042Z,73.45
2022-12-18T08:34:03.531Z,73.34
2022-12-18T08:36:32.803Z,72.96
2022-12-18T08:39:03.884Z,73.11
2022-12-18T08:41:33.411Z,73.03
2022-12-18T08:44:20.639Z,73.16
2022-12-18T08:46:49.955Z,73.30
2022-12-18T08:49:19.372Z,73.34
2022-12-18T08:51:48.759Z,73.47
2022-12-18T08:54:19.526Z,73.35
2022-12-18T08:56:48.802Z,73.12
2022-12-18T08:59:20.168Z,73.10
2022-12-18T09:01:50.701Z,72.92
2022-12-18T09:04:20.722Z,73.08
2022-12-18T09:06:50.025Z,73.03
2022-12-18T09:09:21.065Z,73.00
2022-12-18T09:11:50.296Z,72.88
2022-12-18T09:14:20.092Z,72.73
2022-12-18T09:16:49.352Z,72.91
2022-12-18T09:19:18.756Z,72.78
2022-12-18T09:21:48.580Z,73.02
2022-12-18T09:24:20.292Z,72.57
2022-12-18T09:26:51.570Z,72.27
2022-12-18T09:29:25.188Z,72.08
2022-12-18T09:31:54.740Z,72.09
2022-12-18T09:34:24.163Z,71.94
2022-12-18T09:36:53.515Z,71.88
2022-12-18T09:39:24.522Z,72.20
2022-12-18T09:41:57.126Z,71.88
2022-12-18T09:44:30.104Z,71.35
2022-12-18T09:47:14.499Z,71.73
2022-12-18T09:49:47.504Z,71.57
2022-12-18T09:52:21.812Z,70.93
2022-12-18T09:54:57.374Z,71.08
2022-12-18T09:57:28.068Z,70.71
2022-12-18T10:00:01.495Z,70.58
2022-12-18T10:02:40.936Z,70.60
2022-12-18T10:05:14.084Z,70.84
2022-12-18T10:07:54.367Z,70.46
2022-12-18T10:10:29.580Z,70.34
2022-12-18T10:13:10.541Z,70.71
2022-12-18T10:15:49.164Z,70.28
2022-12-18T10:18:32.324Z,70.17
2022-12-18T10:21:11.840Z,70.23
2022-12-18T10:23:49.975Z,69.56
2022-12-18T10:26:21.793Z,69.70
2022-12-18T10:28:53.338Z,69.05
2022-12-18T10:31:25.485Z,69.14
2022-12-18T10:33:56.614Z,69.27
2022-12-18T10:36:27.492Z,69.26
2022-12-18T10:39:10.019Z,68.67
2022-12-18T10:41:41.261Z,68.63
2022-12-18T10:44:18.442Z,68.73
2022-12-18T10:46:50.212Z,68.56
2022-12-18T10:49:25.263Z,68.72
2022-12-18T10:52:06.653Z,68.69
2022-12-18T10:54:37.602Z,68.97
2022-12-18T10:57:36.010Z,68.44
2022-12-18T11:00:28.905Z,68.40
2022-12-18T11:03:00.336Z,68.03
2022-12-18T11:05:32.786Z,68.59
2022-12-18T11:08:03.316Z,67.92
2022-12-18T11:10:35.764Z,68.03
2022-12-18T11:13:22.612Z,67.88
2022-12-18T11:15:52.846Z,67.74
2022-12-18T11:18:28.289Z,67.98
2022-12-18T11:21:00.634Z,68.03
2022-12-18T11:23:30.666Z,68.16
2022-12-18T11:26:03.250Z,67.97
2022-12-18T11:28:42.040Z,67.88
2022-12-18T11:31:25.450Z,68.07
2022-12-18T11:36:53.286Z,67.03
2022-12-18T11:39:26.854Z,66.74
2022-12-18T11:42:12.429Z,67.53
2022-12-18T11:44:49.688Z,67.21
2022-12-18T11:47:27.958Z,67.07
2022-12-18T11:50:02.231Z,67.18
2022-12-18T11:52:40.559Z,66.85
2022-12-18T11:55:16.186Z,67.07
2022-12-18T11:57:57.389Z,67.04
2022-12-18T12:00:28.993Z,67.85
2022-12-18T12:03:27.919Z,67.96
2022-12-18T12:06:09.100Z,66.75
2022-12-18T12:08:55.183Z,67.22
2022-12-18T12:11:35.744Z,66.85
2022-12-18T12:14:31.224Z,67.14
2022-12-18T12:17:13.385Z,67.19
2022-12-18T12:19:50.404Z,67.68
2022-12-18T12:22:30.293Z,67.75
2022-12-18T12:25:21.164Z,67.90
2022-12-18T12:28:02.328Z,67.77
2022-12-18T12:30:40.178Z,66.77
2022-12-18T12:33:24.448Z,66.91
2022-12-18T12:36:03.156Z,66.72
2022-12-18T12:38:37.748Z,66.54
2022-12-18T12:41:30.733Z,66.77
2022-12-18T12:44:02.959Z,66.75
2022-12-18T12:46:37.657Z,67.02
2022-12-18T12:49:16.655Z,67.36
2022-12-18T12:51:50.677Z,67.12
2022-12-18T12:54:24.665Z,66.94
2022-12-18T12:57:00.124Z,67.72
2022-12-18T12:59:39.758Z,67.48
2022-12-18T13:02:22.454Z,67.60
2022-12-18T13:05:03.339Z,67.73
2022-12-18T13:07:41.096Z,68.16
2022-12-18T13:10:28.080Z,67.52
2022-12-18T13:12:58.806Z,68.08
2022-12-18T13:15:33.783Z,68.33
2022-12-18T13:18:21.910Z,67.99
2022-12-18T13:21:04.500Z,67.86
2022-12-18T13:23:39.125Z,68.17
2022-12-18T13:26:39.039Z,68.42
2022-12-18T13:29:08.906Z,67.91
2022-12-18T13:32:24.456Z,68.38
2022-12-18T13:35:27.907Z,68.53
2022-12-18T13:37:59.011Z,67.78
2022-12-18T13:40:58.408Z,68.21
2022-12-18T13:43:39.018Z,67.59
2022-12-18T13:46:21.914Z,68.11
2022-12-18T13:49:03.933Z,68.34
2022-12-18T13:51:37.252Z,68.18
2022-12-18T13:54:20.841Z,68.07
2022-12-18T13:56:51.797Z,68.02
2022-12-18T13:59:24.766Z,68.49
2022-12-18T14:01:57.694Z,68.26
2022-12-18T14:04:30.869Z,68.26
2022-12-18T14:07:05.024Z,68.35
2022-12-18T14:09:40.555Z,67.71
2022-12-18T14:12:34.224Z,68.02
2022-12-18T14:15:04.909Z,68.08
2022-12-18T14:17:38.485Z,67.94
2022-12-18T14:20:16.641Z,68.25
2022-12-18T14:22:48.185Z,68.43
2022-12-18T14:25:21.952Z,67.95
2022-12-18T14:27:54.521Z,68.13
2022-12-18T14:30:30.111Z,67.90
2022-12-18T14:33:07.789Z,67.82
2022-12-18T14:35:40.563Z,68.04
2022-12-18T14:38:22.415Z,68.32
2022-12-18T14:40:58.523Z,68.21
2022-12-18T14:43:28.674Z,67.90
2022-12-18T14:45:59.759Z,68.25
2022-12-18T14:48:38.816Z,68.18
2022-12-18T14:51:18.334Z,67.80
2022-12-18T14:53:54.282Z,67.53
2022-12-18T14:56:29.192Z,68.15
2022-12-18T14:59:01.206Z,67.72
2022-12-18T15:01:34.522Z,67.46
2022-12-18T15:04:05.615Z,67.87
2022-12-18T15:06:38.514Z,67.76
2022-12-18T15:09:23.457Z,67.80
2022-12-18T15:11:59.744Z,68.14
2022-12-18T15:14:42.206Z,67.97
2022-12-18T15:17:20.140Z,67.99
2022-12-18T15:19:51.138Z,68.04
2022-12-18T15:22:27.774Z,67.91
2022-12-18T15:24:58.147Z,68.03
2022-12-18T15:27:36.572Z,67.97
2022-12-18T15:30:20.384Z,68.04
2022-12-18T15:32:51.031Z,67.49
2022-12-18T15:35:23.036Z,68.17
2022-12-18T15:37:55.118Z,67.85
2022-12-18T15:40:26.036Z,67.68
2022-12-18T15:43:15.581Z,67.67
2022-12-18T15:45:44.878Z,67.74
2022-12-18T15:48:23.209Z,67.63
2022-12-18T15:50:57.878Z,67.50
2022-12-18T15:53:31.757Z,67.47
2022-12-18T15:56:18.594Z,67.30
2022-12-18T15:58:49.915Z,67.64
2022-12-18T16:01:22.777Z,67.47
2022-12-18T16:03:52.674Z,67.26
2022-12-18T16:06:21.811Z,67.16
2022-12-18T16:08:51.465Z,67.22
2022-12-18T16:11:39.243Z,67.33
2022-12-18T16:14:20.457Z,67.70
2022-12-18T16:16:51.433Z,67.19
2022-12-18T16:19:22.189Z,67.29
2022-12-18T16:21:53.044Z,67.28
2022-12-18T16:24:24.227Z,67.25
2022-12-18T16:26:54.195Z,67.45
2022-12-18T16:29:28.095Z,67.13
2022-12-18T16:31:58.138Z,67.07
2022-12-18T16:34:29.780Z,67.23
2022-12-18T16:37:05.631Z,66.82
2022-12-18T16:39:37.379Z,66.81
2022-12-18T16:42:09.161Z,67.07
2022-12-18T16:44:40.286Z,66.89
2022-12-18T16:47:11.061Z,66.88
2022-12-18T16:49:43.753Z,66.65
2022-12-18T16:52:13.146Z,66.85
2022-12-18T16:54:42.884Z,66.92
2022-12-18T16:57:15.300Z,66.68
2022-12-18T16:59:46.763Z,66.72
2022-12-18T17:02:19.100Z,67.21
2022-12-18T17:04:54.680Z,66.99
2022-12-18T17:07:25.007Z,67.13
2022-12-18T17:09:55.544Z,67.00
2022-12-18T17:12:25.146Z,67.11
2022-12-18T17:14:55.981Z,67.30
2022-12-18T17:17:25.933Z,67.74
2022-12-18T17:19:55.349Z,67.60
2022-12-18T17:22:24.662Z,67.29
2022-12-18T17:24:54.020Z,67.34
2022-12-18T17:27:23.443Z,67.41
2022-12-18T17:29:52.601Z,67.42
2022-12-18T17:32:23.447Z,67.41
2022-12-18T17:34:52.726Z,67.62
2022-12-18T17:37:22.405Z,67.76
2022-12-18T17:39:51.746Z,67.10
2022-12-18T17:42:21.319Z,67.25
2022-12-18T17:44:50.621Z,67.04
2022-12-18T17:47:20.182Z,66.92
2022-12-18T17:49:52.253Z,66.81
2022-12-18T17:52:23.419Z,67.01
2022-12-18T17:54:52.798Z,66.57
2022-12-18T17:57:22.455Z,66.63
2022-12-18T17:59:54.501Z,66.98
2022-12-18T18:02:25.158Z,67.63
2022-12-18T18:04:56.444Z,68.26
2022-12-18T18:07:26.027Z,68.58
2022-12-18T18:10:49.872Z,68.47
2022-12-18T18:14:51.228Z,68.57
2022-12-18T18:17:23.295Z,68.19
2022-12-18T18:20:47.447Z,68.49
2022-12-18T18:23:23.217Z,68.90
2022-12-18T18:25:52.799Z,69.17
2022-12-18T18:28:23.095Z,69.38
2022-12-18T18:30:52.371Z,69.15
2022-12-18T18:33:22.185Z,69.17
2022-12-18T18:35:54.813Z,69.53
2022-12-18T18:38:26.240Z,70.36
2022-12-18T18:41:00.482Z,70.14
2022-12-18T18:43:30.998Z,69.99
2022-12-18T18:46:01.814Z,69.78
2022-12-18T18:48:35.658Z,69.24
2022-12-18T18:51:09.396Z,69.04
2022-12-18T18:53:45.004Z,69.17
2022-12-18T18:56:50.141Z,69.17
2022-12-18T18:59:07.059Z,68.89
2022-12-18T19:01:36.647Z,68.44
2022-12-18T19:04:07.936Z,68.76
2022-12-18T19:06:37.380Z,69.04
2022-12-18T19:09:09.136Z,69.04
2022-12-18T19:11:57.074Z,68.75
2022-12-18T19:14:26.899Z,68.80
2022-12-18T19:16:56.155Z,69.52
2022-12-18T19:19:27.126Z,69.54
2022-12-18T19:21:56.442Z,69.26
2022-12-18T19:24:27.601Z,69.72
2022-12-18T19:26:58.117Z,69.18
2022-12-18T19:29:27.897Z,69.46
2022-12-18T19:31:57.046Z,68.62
2022-12-18T19:34:26.896Z,69.40
2022-12-18T19:36:59.955Z,69.44
2022-12-18T19:39:31.415Z,69.11
2022-12-18T19:42:00.700Z,68.14
2022-12-18T19:44:30.153Z,68.38
2022-12-18T19:46:59.528Z,68.39
2022-12-18T19:49:28.950Z,68.75
2022-12-18T19:51:58.584Z,68.33
2022-12-18T19:54:28.225Z,68.13
2022-12-18T19:56:58.900Z,68.49
2022-12-18T19:59:28.535Z,68.61
2022-12-18T20:01:57.889Z,67.92
2022-12-18T20:04:27.561Z,67.76
2022-12-18T20:06:57.676Z,68.06
2022-12-18T20:09:27.287Z,68.21
2022-12-18T20:11:57.937Z,67.91
2022-12-18T20:14:27.711Z,68.03
2022-12-18T20:16:57.839Z,68.14
2022-12-18T20:19:30.026Z,68.06
2022-12-18T20:21:59.345Z,67.71
2022-12-18T20:24:28.887Z,68.76
2022-12-18T20:26:59.885Z,68.55
2022-12-18T20:29:29.446Z,68.89
2022-12-18T20:31:58.696Z,68.45
2022-12-18T20:34:28.187Z,68.32
2022-12-18T20:36:57.620Z,68.18
2022-12-18T20:39:27.609Z,68.25
2022-12-18T20:41:58.586Z,68.41
2022-12-18T20:44:28.546Z,68.96
2022-12-18T20:47:00.295Z,68.96
2022-12-18T20:49:33.556Z,68.54
2022-12-18T20:52:03.937Z,68.74
2022-12-18T20:54:33.787Z,68.65
2022-12-18T20:57:04.612Z,69.40
2022-12-18T20:59:34.286Z,69.67
2022-12-18T21:02:03.649Z,70.23
2022-12-18T21:04:33.337Z,69.63
2022-12-18T21:07:03.086Z,69.10
2022-12-18T21:09:37.549Z,69.69
2022-12-18T21:12:40.274Z,69.58
2022-12-18T21:15:18.252Z,69.84
2022-12-18T21:17:47.696Z,69.78
2022-12-18T21:20:18.544Z,69.64
2022-12-18T21:22:50.351Z,69.84
2022-12-18T21:25:19.964Z,69.93
2022-12-18T21:27:50.713Z,69.38
2022-12-18T21:30:20.567Z,68.87
2022-12-18T21:32:50.071Z,68.91
2022-12-18T21:35:20.003Z,69.67
2022-12-18T21:37:51.434Z,69.14
2022-12-18T21:40:20.935Z,69.31
2022-12-18T21:43:09.003Z,69.13
2022-12-18T21:45:38.759Z,68.53
2022-12-18T21:48:08.141Z,68.19
2022-12-18T21:50:37.697Z,68.08
2022-12-18T21:53:07.058Z,67.88
2022-12-18T21:55:36.662Z,67.92
2022-12-18T21:58:09.596Z,67.85
2022-12-18T22:00:39.106Z,67.54
2022-12-18T22:03:18.821Z,67.39
2022-12-18T22:05:50.598Z,67.29
2022-12-18T22:08:31.539Z,67.40
2022-12-18T22:11:01.122Z,67.58
2022-12-18T22:13:31.680Z,67.49
2022-12-18T22:16:01.139Z,67.08
2022-12-18T22:18:30.373Z,67.22
2022-12-18T22:21:03.286Z,67.40
2022-12-18T22:23:33.177Z,67.40
2022-12-18T22:26:02.586Z,67.44
2022-12-18T22:28:51.581Z,67.64
2022-12-18T22:31:21.120Z,67.45
2022-12-18T22:33:51.163Z,67.19
2022-12-18T22:36:20.711Z,67.25
2022-12-18T22:38:51.597Z,67.08
2022-12-18T22:41:23.280Z,67.44
2022-12-18T22:43:53.766Z,67.21
2022-12-18T22:46:25.139Z,67.14
2022-12-18T22:48:54.669Z,67.05
2022-12-18T22:51:24.098Z,66.92
2022-12-18T22:53:53.378Z,67.17
2022-12-18T22:56:24.783Z,67.47
2022-12-18T22:58:55.292Z,67.71
2022-12-18T23:01:27.485Z,67.92
2022-12-18T23:03:56.838Z,67.90
2022-12-18T23:06:28.127Z,68.36
2022-12-18T23:08:58.711Z,68.29
2022-12-18T23:11:28.555Z,69.21
2022-12-18T23:13:59.178Z,68.69
2022-12-18T23:16:29.428Z,68.48
2022-12-18T23:18:58.809Z,68.97
2022-12-18T23:21:28.425Z,69.07
2022-12-18T23:23:58.438Z,69.46
2022-12-18T23:26:28.038Z,70.30
2022-12-18T23:28:58.974Z,69.71
2022-12-18T23:31:30.897Z,71.09
2022-12-18T23:34:01.894Z,71.38
2022-12-18T23:36:33.987Z,71.33
2022-12-18T23:39:28.886Z,71.18
2022-12-18T23:42:00.350Z,70.87
2022-12-18T23:44:31.414Z,71.37
2022-12-18T23:47:00.984Z,71.82
2022-12-18T23:49:30.134Z,71.69
2022-12-18T23:52:00.144Z,72.33
2022-12-18T23:54:33.557Z,71.95
2022-12-18T23:57:03.717Z,71.80
2022-12-18T23:59:34.216Z,72.26
